sensor_id;sensor_type;location;lat;lon;timestamp;pressure;altitude;pressure_sealevel;temperature;humidity
3254;BME280;1639;42.804;23.342;2023-04-29T00:00:02;73816.19;;;-148.52;62.82
3254;BME280;1639;42.804;23.342;2023-04-29T00:02:31;73830.69;;;-148.52;63.32
3254;BME280;1639;42.804;23.342;2023-04-29T00:04:57;73841.03;;;-148.52;63.76
3254;BME280;1639;42.804;23.342;2023-04-29T00:07:22;73838.94;;;-148.52;64.49
3254;BME280;1639;42.804;23.342;2023-04-29T00:09:48;73838.94;;;-148.52;64.76
3254;BME280;1639;42.804;23.342;2023-04-29T00:12:13;73853.44;;;-148.52;65.29
3254;BME280;1639;42.804;23.342;2023-04-29T00:14:39;73869.97;;;-148.52;66.55
3254;BME280;1639;42.804;23.342;2023-04-29T00:17:05;73865.84;;;-148.52;67.45
3254;BME280;1639;42.804;23.342;2023-04-29T00:19:30;73861.72;;;-148.52;67.66
3254;BME280;1639;42.804;23.342;2023-04-29T00:21:56;73857.56;;;-148.52;67.42
3254;BME280;1639;42.804;23.342;2023-04-29T00:24:21;73853.44;;;-148.52;67.35
3254;BME280;1639;42.804;23.342;2023-04-29T00:26:47;73843.09;;;-148.52;67.50
3254;BME280;1639;42.804;23.342;2023-04-29T00:29:12;73828.59;;;-148.52;67.68
3254;BME280;1639;42.804;23.342;2023-04-29T00:31:38;73826.53;;;-148.52;67.05
3254;BME280;1639;42.804;23.342;2023-04-29T00:34:03;73824.47;;;-148.52;66.69
3254;BME280;1639;42.804;23.342;2023-04-29T00:36:29;73820.34;;;-148.52;66.23
3254;BME280;1639;42.804;23.342;2023-04-29T00:38:56;73816.19;;;-148.52;66.02
3254;BME280;1639;42.804;23.342;2023-04-29T00:41:22;73801.72;;;-148.52;65.94
3254;BME280;1639;42.804;23.342;2023-04-29T00:43:48;73795.50;;;-148.52;65.99
3254;BME280;1639;42.804;23.342;2023-04-29T00:46:13;73791.38;;;-148.52;66.04
3254;BME280;1639;42.804;23.342;2023-04-29T00:48:38;73787.25;;;-148.52;65.65
3254;BME280;1639;42.804;23.342;2023-04-29T00:51:05;73787.25;;;-148.52;65.64
3254;BME280;1639;42.804;23.342;2023-04-29T00:53:32;73774.81;;;-148.52;65.25
3254;BME280;1639;42.804;23.342;2023-04-29T00:55:58;73770.69;;;-148.52;64.60
3254;BME280;1639;42.804;23.342;2023-04-29T00:58:25;73783.09;;;-148.52;64.64
3254;BME280;1639;42.804;23.342;2023-04-29T01:00:58;73799.66;;;-148.52;64.97
3254;BME280;1639;42.804;23.342;2023-04-29T01:03:23;73820.34;;;-148.52;65.38
3254;BME280;1639;42.804;23.342;2023-04-29T01:05:55;73824.47;;;-148.52;66.57
3254;BME280;1639;42.804;23.342;2023-04-29T01:08:49;73861.72;;;-148.52;67.61
3254;BME280;1639;42.804;23.342;2023-04-29T01:11:21;73880.31;;;-148.52;68.08
3254;BME280;1639;42.804;23.342;2023-04-29T01:13:59;73894.81;;;-148.52;68.50
3254;BME280;1639;42.804;23.342;2023-04-29T01:16:36;73921.69;;;-148.52;68.13
3254;BME280;1639;42.804;23.342;2023-04-29T01:19:09;73944.47;;;-148.52;67.22
3254;BME280;1639;42.804;23.342;2023-04-29T01:21:46;73956.88;;;-148.52;67.86
3254;BME280;1639;42.804;23.342;2023-04-29T01:24:13;73956.88;;;-148.52;68.21
3254;BME280;1639;42.804;23.342;2023-04-29T01:26:39;73987.91;;;-148.52;68.36
3254;BME280;1639;42.804;23.342;2023-04-29T01:31:53;74039.63;;;-148.52;69.66
3254;BME280;1639;42.804;23.342;2023-04-29T01:34:30;74037.53;;;-148.52;70.61
3254;BME280;1639;42.804;23.342;2023-04-29T01:37:06;74025.13;;;-148.52;70.15
3254;BME280;1639;42.804;23.342;2023-04-29T01:42:43;74052.03;;;-148.52;70.35
3254;BME280;1639;42.804;23.342;2023-04-29T01:45:10;74041.69;;;-148.52;70.98
3254;BME280;1639;42.804;23.342;2023-04-29T01:47:39;74039.63;;;-148.52;71.66
3254;BME280;1639;42.804;23.342;2023-04-29T01:50:05;74018.94;;;-148.52;72.09
3254;BME280;1639;42.804;23.342;2023-04-29T01:52:31;74018.94;;;-148.52;71.43
3254;BME280;1639;42.804;23.342;2023-04-29T01:54:56;74021.00;;;-148.52;71.60
3254;BME280;1639;42.804;23.342;2023-04-29T01:57:22;74010.66;;;-148.52;71.50
3254;BME280;1639;42.804;23.342;2023-04-29T01:59:47;74000.31;;;-148.52;71.63
3254;BME280;1639;42.804;23.342;2023-04-29T02:02:12;73998.25;;;-148.52;71.90
3254;BME280;1639;42.804;23.342;2023-04-29T02:04:39;73983.75;;;-148.52;73.41
3254;BME280;1639;42.804;23.342;2023-04-29T02:07:05;73975.47;;;-148.52;73.90
3254;BME280;1639;42.804;23.342;2023-04-29T02:09:30;73979.63;;;-148.52;73.34
3254;BME280;1639;42.804;23.342;2023-04-29T02:11:55;73994.09;;;-148.52;72.51
3254;BME280;1639;42.804;23.342;2023-04-29T02:14:21;73985.81;;;-148.52;73.39
3254;BME280;1639;42.804;23.342;2023-04-29T02:16:46;73983.75;;;-148.52;73.07
3254;BME280;1639;42.804;23.342;2023-04-29T02:19:12;73969.28;;;-148.52;73.46
3254;BME280;1639;42.804;23.342;2023-04-29T02:21:37;73954.81;;;-148.52;72.58
3254;BME280;1639;42.804;23.342;2023-04-29T02:24:05;73950.66;;;-148.52;72.69
3254;BME280;1639;42.804;23.342;2023-04-29T02:26:30;73956.88;;;-148.52;72.41
3254;BME280;1639;42.804;23.342;2023-04-29T02:28:57;73956.88;;;-148.52;71.98
3254;BME280;1639;42.804;23.342;2023-04-29T02:31:22;73961.00;;;-148.52;72.24
3254;BME280;1639;42.804;23.342;2023-04-29T02:33:47;73954.81;;;-148.52;72.48
3254;BME280;1639;42.804;23.342;2023-04-29T02:36:13;73950.66;;;-148.52;71.85
3254;BME280;1639;42.804;23.342;2023-04-29T02:38:38;73948.59;;;-148.52;71.60
3254;BME280;1639;42.804;23.342;2023-04-29T02:41:04;73952.72;;;-148.52;71.77
3254;BME280;1639;42.804;23.342;2023-04-29T02:43:29;73965.16;;;-148.52;72.09
3254;BME280;1639;42.804;23.342;2023-04-29T02:45:55;73967.22;;;-148.52;72.74
3254;BME280;1639;42.804;23.342;2023-04-29T02:48:21;73961.00;;;-148.52;72.59
3254;BME280;1639;42.804;23.342;2023-04-29T02:50:46;73961.00;;;-148.52;73.08
3254;BME280;1639;42.804;23.342;2023-04-29T02:53:12;73981.69;;;-148.52;73.49
3254;BME280;1639;42.804;23.342;2023-04-29T02:55:37;74010.66;;;-148.52;74.39
3254;BME280;1639;42.804;23.342;2023-04-29T02:58:02;74037.53;;;-148.52;76.37
3254;BME280;1639;42.804;23.342;2023-04-29T03:00:28;74049.97;;;-148.52;78.46
3254;BME280;1639;42.804;23.342;2023-04-29T03:02:53;74056.16;;;-148.52;81.12
3254;BME280;1639;42.804;23.342;2023-04-29T03:05:19;74035.47;;;-148.52;80.62
3254;BME280;1639;42.804;23.342;2023-04-29T03:07:44;74064.44;;;-148.52;81.55
3254;BME280;1639;42.804;23.342;2023-04-29T03:10:10;74056.16;;;-148.52;81.98
3254;BME280;1639;42.804;23.342;2023-04-29T03:12:36;74045.81;;;-148.52;80.97
3254;BME280;1639;42.804;23.342;2023-04-29T03:15:02;74056.16;;;-148.52;81.08
3254;BME280;1639;42.804;23.342;2023-04-29T03:17:27;74047.88;;;-148.52;80.12
3254;BME280;1639;42.804;23.342;2023-04-29T03:19:52;74060.31;;;-148.52;80.58
3254;BME280;1639;42.804;23.342;2023-04-29T03:22:18;74043.75;;;-148.52;80.36
3254;BME280;1639;42.804;23.342;2023-04-29T03:24:44;74043.75;;;-148.52;78.38
3254;BME280;1639;42.804;23.342;2023-04-29T03:27:09;74037.53;;;-148.52;77.88
3254;BME280;1639;42.804;23.342;2023-04-29T03:29:35;74047.88;;;-148.52;76.95
3254;BME280;1639;42.804;23.342;2023-04-29T03:32:00;74052.03;;;-148.52;76.93
3254;BME280;1639;42.804;23.342;2023-04-29T03:34:27;74054.09;;;-148.52;76.37
3254;BME280;1639;42.804;23.342;2023-04-29T03:36:52;74056.16;;;-148.52;75.21
3254;BME280;1639;42.804;23.342;2023-04-29T03:39:18;74072.72;;;-148.52;74.63
3254;BME280;1639;42.804;23.342;2023-04-29T03:41:43;74076.84;;;-148.52;74.26
3254;BME280;1639;42.804;23.342;2023-04-29T03:44:11;74105.81;;;-148.52;73.92
3254;BME280;1639;42.804;23.342;2023-04-29T03:46:36;74109.94;;;-148.52;73.98
3254;BME280;1639;42.804;23.342;2023-04-29T03:49:01;74122.38;;;-148.52;73.78
3254;BME280;1639;42.804;23.342;2023-04-29T03:51:27;74126.50;;;-148.52;74.68
3254;BME280;1639;42.804;23.342;2023-04-29T03:53:53;74124.44;;;-148.52;75.06
3254;BME280;1639;42.804;23.342;2023-04-29T03:56:20;74126.50;;;-148.52;75.88
3254;BME280;1639;42.804;23.342;2023-04-29T03:58:47;74126.50;;;-148.52;76.49
3254;BME280;1639;42.804;23.342;2023-04-29T04:01:12;74107.88;;;-148.52;77.22
3254;BME280;1639;42.804;23.342;2023-04-29T04:03:38;74101.69;;;-148.52;77.45
3254;BME280;1639;42.804;23.342;2023-04-29T04:06:03;74101.69;;;-148.52;77.72
3254;BME280;1639;42.804;23.342;2023-04-29T04:08:29;74103.75;;;-148.52;78.29
3254;BME280;1639;42.804;23.342;2023-04-29T04:10:54;74101.69;;;-148.52;79.86
3254;BME280;1639;42.804;23.342;2023-04-29T04:13:26;74087.19;;;-148.52;81.11
3254;BME280;1639;42.804;23.342;2023-04-29T04:15:52;74076.84;;;-148.52;81.95
3254;BME280;1639;42.804;23.342;2023-04-29T04:18:17;74058.22;;;-148.52;82.70
3254;BME280;1639;42.804;23.342;2023-04-29T04:20:43;74035.47;;;-148.52;83.04
3254;BME280;1639;42.804;23.342;2023-04-29T04:23:08;74012.72;;;-148.52;82.56
3254;BME280;1639;42.804;23.342;2023-04-29T04:25:33;73987.91;;;-148.52;82.13
3254;BME280;1639;42.804;23.342;2023-04-29T04:27:59;73969.28;;;-148.52;80.23
3254;BME280;1639;42.804;23.342;2023-04-29T04:30:24;73952.72;;;-148.52;78.77
3254;BME280;1639;42.804;23.342;2023-04-29T04:32:49;73940.31;;;-148.52;79.03
3254;BME280;1639;42.804;23.342;2023-04-29T04:35:15;73925.84;;;-148.52;78.99
3254;BME280;1639;42.804;23.342;2023-04-29T04:37:40;73919.63;;;-148.52;78.66
3254;BME280;1639;42.804;23.342;2023-04-29T04:40:06;73929.97;;;-148.52;77.74
3254;BME280;1639;42.804;23.342;2023-04-29T04:42:32;73932.03;;;-148.52;77.57
3254;BME280;1639;42.804;23.342;2023-04-29T04:44:57;73919.63;;;-148.52;78.48
3254;BME280;1639;42.804;23.342;2023-04-29T04:47:23;73929.97;;;-148.52;78.11
3254;BME280;1639;42.804;23.342;2023-04-29T04:49:48;73921.69;;;-148.52;78.99
3254;BME280;1639;42.804;23.342;2023-04-29T04:52:14;73925.84;;;-148.52;79.57
3254;BME280;1639;42.804;23.342;2023-04-29T04:54:39;73911.34;;;-148.52;79.43
3254;BME280;1639;42.804;23.342;2023-04-29T04:57:05;73907.22;;;-148.52;79.27
3254;BME280;1639;42.804;23.342;2023-04-29T04:59:30;73917.56;;;-148.52;80.52
3254;BME280;1639;42.804;23.342;2023-04-29T05:01:56;73913.44;;;-148.52;81.59
3254;BME280;1639;42.804;23.342;2023-04-29T05:04:21;73888.59;;;-148.52;82.88
3254;BME280;1639;42.804;23.342;2023-04-29T05:06:46;73869.97;;;-148.52;82.63
3254;BME280;1639;42.804;23.342;2023-04-29T05:09:12;73861.72;;;-148.52;82.39
3254;BME280;1639;42.804;23.342;2023-04-29T05:11:37;73857.56;;;-148.52;83.84
3254;BME280;1639;42.804;23.342;2023-04-29T05:14:03;73826.53;;;-148.52;81.67
3254;BME280;1639;42.804;23.342;2023-04-29T05:16:29;73812.06;;;-148.52;79.88
3254;BME280;1639;42.804;23.342;2023-04-29T05:18:54;73841.03;;;-148.52;79.79
3254;BME280;1639;42.804;23.342;2023-04-29T05:21:20;73816.19;;;-148.52;80.17
3254;BME280;1639;42.804;23.342;2023-04-29T05:23:45;73810.00;;;-148.52;84.06
3254;BME280;1639;42.804;23.342;2023-04-29T05:26:10;73785.16;;;-148.52;81.61
3254;BME280;1639;42.804;23.342;2023-04-29T05:28:36;73750.00;;;-148.52;80.17
3254;BME280;1639;42.804;23.342;2023-04-29T05:31:01;73716.91;;;-148.52;79.47
3254;BME280;1639;42.804;23.342;2023-04-29T05:33:27;73704.50;;;-148.52;75.38
3254;BME280;1639;42.804;23.342;2023-04-29T05:35:52;73681.75;;;-148.52;74.50
3254;BME280;1639;42.804;23.342;2023-04-29T05:38:18;73648.63;;;-148.52;74.46
3254;BME280;1639;42.804;23.342;2023-04-29T05:40:43;73623.81;;;-148.52;73.22
3254;BME280;1639;42.804;23.342;2023-04-29T05:43:09;73605.19;;;-148.52;71.57
3254;BME280;1639;42.804;23.342;2023-04-29T05:45:35;73576.25;;;-148.52;69.69
3254;BME280;1639;42.804;23.342;2023-04-29T05:48:00;73551.41;;;-148.52;67.33
3254;BME280;1639;42.804;23.342;2023-04-29T05:50:26;73534.88;;;-148.52;68.67
3254;BME280;1639;42.804;23.342;2023-04-29T05:52:51;73512.13;;;-148.52;66.62
3254;BME280;1639;42.804;23.342;2023-04-29T05:55:18;73491.44;;;-148.52;65.04
3254;BME280;1639;42.804;23.342;2023-04-29T05:57:44;73470.75;;;-148.52;63.42
3254;BME280;1639;42.804;23.342;2023-04-29T06:00:10;73435.59;;;-148.52;64.12
3254;BME280;1639;42.804;23.342;2023-04-29T06:02:35;73423.19;;;-148.52;62.34
3254;BME280;1639;42.804;23.342;2023-04-29T06:05:01;73398.34;;;-148.52;60.72
3254;BME280;1639;42.804;23.342;2023-04-29T06:07:26;73377.66;;;-148.52;59.61
3254;BME280;1639;42.804;23.342;2023-04-29T06:09:52;73357.00;;;-148.52;57.53
3254;BME280;1639;42.804;23.342;2023-04-29T06:12:17;73352.84;;;-148.52;57.25
3254;BME280;1639;42.804;23.342;2023-04-29T06:14:42;73332.16;;;-148.52;56.41
3254;BME280;1639;42.804;23.342;2023-04-29T06:17:08;73303.22;;;-148.52;56.02
3254;BME280;1639;42.804;23.342;2023-04-29T06:19:33;73315.63;;;-148.52;57.15
3254;BME280;1639;42.804;23.342;2023-04-29T06:21:59;73307.34;;;-148.52;56.16
3254;BME280;1639;42.804;23.342;2023-04-29T06:24:24;73292.88;;;-148.52;54.73
3254;BME280;1639;42.804;23.342;2023-04-29T06:26:50;73255.63;;;-148.52;54.87
3254;BME280;1639;42.804;23.342;2023-04-29T06:29:15;73226.69;;;-148.52;54.44
3254;BME280;1639;42.804;23.342;2023-04-29T06:31:41;73226.69;;;-148.52;53.62
3254;BME280;1639;42.804;23.342;2023-04-29T06:34:06;73201.84;;;-148.52;53.90
3254;BME280;1639;42.804;23.342;2023-04-29T06:36:32;73191.53;;;-148.52;53.50
3254;BME280;1639;42.804;23.342;2023-04-29T06:38:57;73168.75;;;-148.52;51.07
3254;BME280;1639;42.804;23.342;2023-04-29T06:41:22;73179.09;;;-148.52;51.32
3254;BME280;1639;42.804;23.342;2023-04-29T06:43:48;73197.72;;;-148.52;51.63
3254;BME280;1639;42.804;23.342;2023-04-29T06:46:13;73174.97;;;-148.52;51.56
3254;BME280;1639;42.804;23.342;2023-04-29T06:48:38;73162.56;;;-148.52;50.96
3254;BME280;1639;42.804;23.342;2023-04-29T06:51:04;73137.75;;;-148.52;51.30
3254;BME280;1639;42.804;23.342;2023-04-29T06:53:29;73203.94;;;-148.52;51.69
3254;BME280;1639;42.804;23.342;2023-04-29T06:55:55;73181.19;;;-148.52;51.75
3254;BME280;1639;42.804;23.342;2023-04-29T06:58:20;73141.88;;;-148.52;51.76
3254;BME280;1639;42.804;23.342;2023-04-29T07:00:49;73090.16;;;-148.52;50.90
3254;BME280;1639;42.804;23.342;2023-04-29T07:03:16;73042.59;;;-148.52;50.15
3254;BME280;1639;42.804;23.342;2023-04-29T07:05:43;73007.44;;;-148.52;49.75
3254;BME280;1639;42.804;23.342;2023-04-29T07:08:10;72978.50;;;-148.52;48.90
3254;BME280;1639;42.804;23.342;2023-04-29T07:10:36;72955.75;;;-148.52;48.12
3254;BME280;1639;42.804;23.342;2023-04-29T07:13:02;72943.31;;;-148.52;48.33
3254;BME280;1639;42.804;23.342;2023-04-29T07:15:28;72920.56;;;-148.52;47.74
3254;BME280;1639;42.804;23.342;2023-04-29T07:17:55;72893.69;;;-148.52;47.29
3254;BME280;1639;42.804;23.342;2023-04-29T07:20:20;72856.47;;;-148.52;47.44
3254;BME280;1639;42.804;23.342;2023-04-29T07:22:46;72844.06;;;-148.52;46.14
3254;BME280;1639;42.804;23.342;2023-04-29T07:25:11;72842.00;;;-148.52;47.01
3254;BME280;1639;42.804;23.342;2023-04-29T07:27:37;72817.16;;;-148.52;46.55
3254;BME280;1639;42.804;23.342;2023-04-29T07:30:03;72806.81;;;-148.52;45.72
3254;BME280;1639;42.804;23.342;2023-04-29T07:32:29;72802.69;;;-148.52;46.35
3254;BME280;1639;42.804;23.342;2023-04-29T07:34:58;72802.69;;;-148.52;45.49
3254;BME280;1639;42.804;23.342;2023-04-29T07:37:23;72806.81;;;-148.52;45.83
3254;BME280;1639;42.804;23.342;2023-04-29T07:39:49;72806.81;;;-148.52;45.96
3254;BME280;1639;42.804;23.342;2023-04-29T07:42:14;72790.28;;;-148.52;46.23
3254;BME280;1639;42.804;23.342;2023-04-29T07:44:40;72790.28;;;-148.52;44.78
3254;BME280;1639;42.804;23.342;2023-04-29T07:47:05;72794.41;;;-148.52;45.92
3254;BME280;1639;42.804;23.342;2023-04-29T07:49:31;72742.72;;;-148.52;45.16
3254;BME280;1639;42.804;23.342;2023-04-29T07:51:56;72697.22;;;-148.52;46.66
3254;BME280;1639;42.804;23.342;2023-04-29T07:54:21;72670.34;;;-148.52;43.46
3254;BME280;1639;42.804;23.342;2023-04-29T07:56:48;72645.53;;;-148.52;43.91
3254;BME280;1639;42.804;23.342;2023-04-29T07:59:13;72643.44;;;-148.52;43.80
3254;BME280;1639;42.804;23.342;2023-04-29T08:01:42;72622.78;;;-148.52;42.80
3254;BME280;1639;42.804;23.342;2023-04-29T08:04:07;72616.56;;;-148.52;43.00
3254;BME280;1639;42.804;23.342;2023-04-29T08:06:33;72614.50;;;-148.52;42.87
3254;BME280;1639;42.804;23.342;2023-04-29T08:09:00;72562.81;;;-148.52;45.23
3254;BME280;1639;42.804;23.342;2023-04-29T08:11:26;72533.84;;;-148.52;42.08
3254;BME280;1639;42.804;23.342;2023-04-29T08:13:52;72550.38;;;-148.52;42.41
3254;BME280;1639;42.804;23.342;2023-04-29T08:16:17;72595.88;;;-148.52;44.79
3254;BME280;1639;42.804;23.342;2023-04-29T08:18:43;72552.47;;;-148.52;41.96
3254;BME280;1639;42.804;23.342;2023-04-29T08:21:08;72515.22;;;-148.52;44.64
3254;BME280;1639;42.804;23.342;2023-04-29T08:23:36;72480.09;;;-148.52;41.37
3254;BME280;1639;42.804;23.342;2023-04-29T08:26:02;72525.56;;;-148.52;41.40
3254;BME280;1639;42.804;23.342;2023-04-29T08:28:27;72600.03;;;-148.52;41.76
3254;BME280;1639;42.804;23.342;2023-04-29T08:30:53;72589.69;;;-148.52;42.81
3254;BME280;1639;42.804;23.342;2023-04-29T08:33:19;72558.66;;;-148.52;43.30
3254;BME280;1639;42.804;23.342;2023-04-29T08:35:44;72562.81;;;-148.52;41.76
3254;BME280;1639;42.804;23.342;2023-04-29T08:38:10;72566.94;;;-148.52;41.46
3254;BME280;1639;42.804;23.342;2023-04-29T08:40:40;72579.34;;;-148.52;41.20
3254;BME280;1639;42.804;23.342;2023-04-29T08:43:06;72624.84;;;-148.52;41.23
3254;BME280;1639;42.804;23.342;2023-04-29T08:45:34;72556.59;;;-148.52;41.76
3254;BME280;1639;42.804;23.342;2023-04-29T08:48:01;72564.88;;;-148.52;39.81
3254;BME280;1639;42.804;23.342;2023-04-29T08:50:29;72535.91;;;-148.52;39.61
3254;BME280;1639;42.804;23.342;2023-04-29T08:52:54;72490.41;;;-148.52;39.88
3254;BME280;1639;42.804;23.342;2023-04-29T08:55:20;72478.00;;;-148.52;38.10
3254;BME280;1639;42.804;23.342;2023-04-29T08:57:48;72469.75;;;-148.52;38.10
3254;BME280;1639;42.804;23.342;2023-04-29T09:00:14;72465.59;;;-148.52;37.22
3254;BME280;1639;42.804;23.342;2023-04-29T09:02:49;72455.25;;;-148.52;37.54
3254;BME280;1639;42.804;23.342;2023-04-29T09:05:15;72409.78;;;-148.52;38.03
3254;BME280;1639;42.804;23.342;2023-04-29T09:07:41;72389.09;;;-148.52;36.26
3254;BME280;1639;42.804;23.342;2023-04-29T09:10:07;72380.81;;;-148.52;37.23
3254;BME280;1639;42.804;23.342;2023-04-29T09:12:32;72391.16;;;-148.52;36.02
3254;BME280;1639;42.804;23.342;2023-04-29T09:14:58;72360.13;;;-148.52;37.24
3254;BME280;1639;42.804;23.342;2023-04-29T09:22:48;72362.22;;;-148.52;37.07
3254;BME280;1639;42.804;23.342;2023-04-29T09:25:14;72351.88;;;-148.52;37.91
3254;BME280;1639;42.804;23.342;2023-04-29T09:27:40;72347.72;;;-148.52;36.00
3254;BME280;1639;42.804;23.342;2023-04-29T09:30:06;72345.66;;;-148.52;35.54
3254;BME280;1639;42.804;23.342;2023-04-29T09:32:31;72364.28;;;-148.52;33.01
3254;BME280;1639;42.804;23.342;2023-04-29T09:34:57;72347.72;;;-148.52;34.34
3254;BME280;1639;42.804;23.342;2023-04-29T09:37:26;72345.66;;;-148.52;34.13
3254;BME280;1639;42.804;23.342;2023-04-29T09:39:52;72318.78;;;-148.52;35.17
3254;BME280;1639;42.804;23.342;2023-04-29T09:42:18;72302.25;;;-148.52;35.76
3254;BME280;1639;42.804;23.342;2023-04-29T09:44:43;72265.03;;;-148.52;35.25
3254;BME280;1639;42.804;23.342;2023-04-29T09:47:09;72238.13;;;-148.52;34.49
3254;BME280;1639;42.804;23.342;2023-04-29T09:49:40;72229.88;;;-148.52;35.93
3254;BME280;1639;42.804;23.342;2023-04-29T09:52:07;72174.03;;;-148.52;35.18
3254;BME280;1639;42.804;23.342;2023-04-29T09:54:34;72116.13;;;-148.52;34.03
3254;BME280;1639;42.804;23.342;2023-04-29T09:57:01;72093.41;;;-148.52;34.00
3254;BME280;1639;42.804;23.342;2023-04-29T09:59:30;72122.34;;;-148.52;34.19
3254;BME280;1639;42.804;23.342;2023-04-29T10:01:56;72140.94;;;-148.52;32.31
3254;BME280;1639;42.804;23.342;2023-04-29T10:04:24;72095.47;;;-148.52;31.84
3254;BME280;1639;42.804;23.342;2023-04-29T10:06:52;72062.38;;;-148.52;33.11
3254;BME280;1639;42.804;23.342;2023-04-29T10:09:18;72008.63;;;-148.52;33.72
3254;BME280;1639;42.804;23.342;2023-04-29T10:11:45;71987.94;;;-148.52;31.04
3254;BME280;1639;42.804;23.342;2023-04-29T10:14:14;71985.88;;;-148.52;31.07
3254;BME280;1639;42.804;23.342;2023-04-29T10:16:48;72008.63;;;-148.52;30.69
3254;BME280;1639;42.804;23.342;2023-04-29T10:19:18;72031.38;;;-148.52;31.39
3254;BME280;1639;42.804;23.342;2023-04-29T10:21:49;72016.88;;;-148.52;31.63
3254;BME280;1639;42.804;23.342;2023-04-29T10:24:16;71996.22;;;-148.52;32.66
3254;BME280;1639;42.804;23.342;2023-04-29T10:26:43;71987.94;;;-148.52;31.75
3254;BME280;1639;42.804;23.342;2023-04-29T10:29:10;71975.53;;;-148.52;30.45
3254;BME280;1639;42.804;23.342;2023-04-29T10:31:36;71987.94;;;-148.52;30.52
3254;BME280;1639;42.804;23.342;2023-04-29T10:34:02;71967.25;;;-148.52;31.46
3254;BME280;1639;42.804;23.342;2023-04-29T10:36:28;71948.66;;;-148.52;31.70
3254;BME280;1639;42.804;23.342;2023-04-29T10:38:58;71956.94;;;-148.52;31.21
3254;BME280;1639;42.804;23.342;2023-04-29T10:41:32;71946.59;;;-148.52;30.53
3254;BME280;1639;42.804;23.342;2023-04-29T10:43:59;71948.66;;;-148.52;29.60
3254;BME280;1639;42.804;23.342;2023-04-29T10:46:25;71959.00;;;-148.52;28.48
3254;BME280;1639;42.804;23.342;2023-04-29T10:49:01;71971.41;;;-148.52;30.93
3254;BME280;1639;42.804;23.342;2023-04-29T10:51:39;71963.13;;;-148.52;30.18
3254;BME280;1639;42.804;23.342;2023-04-29T10:56:40;71977.59;;;-148.52;31.23
3254;BME280;1639;42.804;23.342;2023-04-29T10:59:19;72012.75;;;-148.52;31.01
3254;BME280;1639;42.804;23.342;2023-04-29T11:04:12;72045.84;;;-148.52;31.31
3254;BME280;1639;42.804;23.342;2023-04-29T11:06:40;72058.25;;;-148.52;30.69
3254;BME280;1639;42.804;23.342;2023-04-29T11:09:18;72083.06;;;-148.52;31.88
3254;BME280;1639;42.804;23.342;2023-04-29T11:14:24;72103.72;;;-148.52;31.70
3254;BME280;1639;42.804;23.342;2023-04-29T11:16:52;72112.00;;;-148.52;31.10
3254;BME280;1639;42.804;23.342;2023-04-29T11:19:18;72122.34;;;-148.52;31.91
3254;BME280;1639;42.804;23.342;2023-04-29T11:21:45;72140.94;;;-148.52;33.37
3254;BME280;1639;42.804;23.342;2023-04-29T11:24:12;72145.09;;;-148.52;34.83
3254;BME280;1639;42.804;23.342;2023-04-29T11:26:40;72153.34;;;-148.52;33.78
3254;BME280;1639;42.804;23.342;2023-04-29T11:29:07;72163.69;;;-148.52;33.59
3254;BME280;1639;42.804;23.342;2023-04-29T11:31:35;72174.03;;;-148.52;33.85
3254;BME280;1639;42.804;23.342;2023-04-29T11:34:02;72180.25;;;-148.52;33.83
3254;BME280;1639;42.804;23.342;2023-04-29T11:36:30;72190.56;;;-148.52;34.26
3254;BME280;1639;42.804;23.342;2023-04-29T11:38:59;72194.72;;;-148.52;34.08
3254;BME280;1639;42.804;23.342;2023-04-29T11:41:25;72205.06;;;-148.52;34.24
3254;BME280;1639;42.804;23.342;2023-04-29T11:43:55;72215.38;;;-148.52;34.94
3254;BME280;1639;42.804;23.342;2023-04-29T11:46:21;72215.38;;;-148.52;35.22
3254;BME280;1639;42.804;23.342;2023-04-29T11:48:47;72215.38;;;-148.52;35.66
3254;BME280;1639;42.804;23.342;2023-04-29T11:51:14;72211.25;;;-148.52;35.44
3254;BME280;1639;42.804;23.342;2023-04-29T11:53:40;72211.25;;;-148.52;34.91
3254;BME280;1639;42.804;23.342;2023-04-29T11:56:05;72219.53;;;-148.52;34.94
3254;BME280;1639;42.804;23.342;2023-04-29T11:58:33;72223.66;;;-148.52;33.95
3254;BME280;1639;42.804;23.342;2023-04-29T12:00:58;72223.66;;;-148.52;34.60
3254;BME280;1639;42.804;23.342;2023-04-29T12:03:23;72221.59;;;-148.52;35.00
3254;BME280;1639;42.804;23.342;2023-04-29T12:05:52;72221.59;;;-148.52;34.39
3254;BME280;1639;42.804;23.342;2023-04-29T12:08:28;72207.13;;;-148.52;32.44
3254;BME280;1639;42.804;23.342;2023-04-29T12:10:56;72196.78;;;-148.52;33.74
3254;BME280;1639;42.804;23.342;2023-04-29T12:13:23;72196.78;;;-148.52;34.26
3254;BME280;1639;42.804;23.342;2023-04-29T12:15:50;72180.25;;;-148.52;34.51
3254;BME280;1639;42.804;23.342;2023-04-29T12:18:17;72165.75;;;-148.52;35.29
3254;BME280;1639;42.804;23.342;2023-04-29T12:20:44;72174.03;;;-148.52;36.30
3254;BME280;1639;42.804;23.342;2023-04-29T12:23:21;72174.03;;;-148.52;36.00
3254;BME280;1639;42.804;23.342;2023-04-29T12:25:58;72155.44;;;-148.52;34.45
3254;BME280;1639;42.804;23.342;2023-04-29T12:28:25;72143.03;;;-148.52;35.53
3254;BME280;1639;42.804;23.342;2023-04-29T12:30:52;72136.81;;;-148.52;35.22
3254;BME280;1639;42.804;23.342;2023-04-29T12:33:23;72140.94;;;-148.52;34.15
3254;BME280;1639;42.804;23.342;2023-04-29T12:35:50;72140.94;;;-148.52;34.60
3254;BME280;1639;42.804;23.342;2023-04-29T12:38:26;72134.75;;;-148.52;34.60
3254;BME280;1639;42.804;23.342;2023-04-29T12:40:57;72122.34;;;-148.52;34.57
3254;BME280;1639;42.804;23.342;2023-04-29T12:43:30;72116.13;;;-148.52;34.08
3254;BME280;1639;42.804;23.342;2023-04-29T12:46:01;72107.88;;;-148.52;34.21
3254;BME280;1639;42.804;23.342;2023-04-29T12:48:31;72101.66;;;-148.52;34.83
3254;BME280;1639;42.804;23.342;2023-04-29T12:50:57;72109.94;;;-148.52;34.02
3254;BME280;1639;42.804;23.342;2023-04-29T12:53:25;72107.88;;;-148.52;33.78
3254;BME280;1639;42.804;23.342;2023-04-29T12:55:51;72095.47;;;-148.52;34.71
3254;BME280;1639;42.804;23.342;2023-04-29T12:58:16;72076.84;;;-148.52;35.18
3254;BME280;1639;42.804;23.342;2023-04-29T13:00:41;72083.06;;;-148.52;34.39
3254;BME280;1639;42.804;23.342;2023-04-29T13:03:07;72099.59;;;-148.52;34.16
3254;BME280;1639;42.804;23.342;2023-04-29T13:05:32;72095.47;;;-148.52;34.36